Time;durP1;ratioP1;P1;durP2;ratioP2;P2;SDS_P1;SDS_P2;PMS_P1;PMS_P2;Temp;Humidity;BMP_temperature;BMP_pressure;BME280_temperature;BME280_humidity;BME280_pressure;Samples;Min_cycle;Max_cycle;Signal;HPM_P1;HPM_P2
2022/07/30 00:00:38;;;;;;;4.60;0.90;;;;;;;21.92;56.51;101459.44;7384163;19;20083;-66
2022/07/30 00:03:05;;;;;;;4.25;1.00;;;;;;;21.89;56.18;101460.66;7383911;19;20743;-67
2022/07/30 00:05:31;;;;;;;5.25;1.10;;;;;;;21.89;56.33;101455.28;7381341;19;20098;-66
2022/07/30 00:07:58;;;;;;;2.25;1.10;;;;;;;21.89;56.18;101460.66;7382109;19;20483;-66
2022/07/30 00:10:26;;;;;;;6.78;1.10;;;;;;;21.90;56.06;101469.53;7383982;19;20021;-66
2022/07/30 00:12:53;;;;;;;2.88;0.90;;;;;;;21.88;55.98;101461.72;7381778;19;20467;-66
2022/07/30 00:15:20;;;;;;;4.13;1.77;;;;;;;21.87;55.97;101465.41;7381809;19;20069;-62
2022/07/30 00:17:47;;;;;;;4.90;1.00;;;;;;;21.85;55.68;101469.34;7384069;19;20011;-62
2022/07/30 00:20:15;;;;;;;2.55;1.40;;;;;;;21.85;55.56;101466.66;7377209;19;20043;-63
2022/07/30 00:22:43;;;;;;;4.32;1.25;;;;;;;21.85;56.62;101461.28;7383020;19;20546;-62
2022/07/30 00:25:10;;;;;;;3.97;0.90;;;;;;;21.86;55.93;101454.91;7381661;19;20018;-62
2022/07/30 00:27:38;;;;;;;7.40;1.30;;;;;;;21.86;55.89;101457.59;7383283;19;20014;-62
2022/07/30 00:30:05;;;;;;;3.45;1.00;;;;;;;21.85;55.88;101462.13;7382526;19;20538;-61
2022/07/30 00:32:32;;;;;;;3.85;0.90;;;;;;;21.83;55.92;101464.19;7383429;19;20335;-64
2022/07/30 00:34:59;;;;;;;8.65;0.77;;;;;;;21.81;55.50;101460.91;7379543;19;20083;-63
2022/07/30 00:37:26;;;;;;;5.43;1.10;;;;;;;21.81;55.53;101452.03;7388610;19;20020;-63
2022/07/30 00:39:53;;;;;;;3.92;1.00;;;;;;;21.81;56.35;101454.72;7386216;19;20349;-62
2022/07/30 00:42:24;;;;;;;4.55;0.90;;;;;;;21.81;56.05;101454.72;7389303;19;20014;-61
2022/07/30 00:44:52;;;;;;;5.07;0.80;;;;;;;21.81;55.71;101457.41;7389703;19;20327;-62
2022/07/30 00:47:19;;;;;;;5.13;0.80;;;;;;;21.81;55.72;101452.03;7389822;19;20367;-62
2022/07/30 00:49:46;;;;;;;3.65;0.85;;;;;;;21.79;55.96;101446.88;7383896;19;20531;-62
2022/07/30 00:52:13;;;;;;;4.85;0.73;;;;;;;21.79;55.90;101448.75;7388822;19;20024;-63
2022/07/30 00:54:39;;;;;;;5.25;0.80;;;;;;;21.76;55.91;101436.59;7388732;19;20095;-63
2022/07/30 00:57:06;;;;;;;4.80;0.88;;;;;;;21.75;56.48;101437.63;7387947;19;20381;-63
2022/07/30 00:59:34;;;;;;;7.82;1.20;;;;;;;21.73;56.14;101443.22;7386899;19;20018;-63
2022/07/30 01:02:02;;;;;;;3.60;0.90;;;;;;;21.72;56.62;101435.38;7386437;19;20010;-63
2022/07/30 01:04:29;;;;;;;5.28;1.00;;;;;;;21.70;56.43;101437.44;7384649;19;20015;-62
2022/07/30 01:06:56;;;;;;;3.92;1.10;;;;;;;21.67;56.99;101427.16;7389378;19;20081;-63
2022/07/30 01:09:24;;;;;;;4.43;1.00;;;;;;;21.66;57.08;101420.13;7388549;19;20110;-67
2022/07/30 01:11:50;;;;;;;4.22;1.13;;;;;;;21.64;57.19;101414.16;7385901;19;20014;-63
2022/07/30 01:14:18;;;;;;;5.80;2.83;;;;;;;21.63;58.08;101416.03;7380192;19;20082;-63
2022/07/30 01:16:45;;;;;;;2.33;1.02;;;;;;;21.64;58.33;101420.34;7380422;19;20006;-63
2022/07/30 01:22:39;;;;;;;5.80;1.10;;;;;;;21.61;57.73;101427.97;7382941;19;20082;-66
2022/07/30 01:25:19;;;;;;;5.85;1.65;;;;;;;21.58;57.83;101421.22;7382381;19;20010;-63
2022/07/30 01:27:57;;;;;;;4.03;0.93;;;;;;;21.55;57.28;101424.28;7385766;19;20472;-63
2022/07/30 01:30:28;;;;;;;6.60;1.20;;;;;;;21.57;57.64;101424.91;7387656;19;20019;-63
2022/07/30 01:32:57;;;;;;;3.75;1.38;;;;;;;21.57;58.97;101418.72;7389533;19;20337;-63
2022/07/30 01:35:27;;;;;;;4.78;1.50;;;;;;;21.57;57.82;101410.69;7384206;19;20090;-63
2022/07/30 01:37:56;;;;;;;4.57;1.10;;;;;;;21.58;57.24;101418.53;7388305;19;20340;-62
2022/07/30 01:40:25;;;;;;;8.23;1.15;;;;;;;21.55;56.97;101423.47;7384701;19;20022;-62
2022/07/30 01:42:54;;;;;;;6.93;1.38;;;;;;;21.54;57.58;101419.13;7389381;19;20479;-61
2022/07/30 01:45:23;;;;;;;6.50;1.35;;;;;;;21.50;57.32;101425.94;7387831;19;20482;-63
2022/07/30 01:47:56;;;;;;;3.53;1.63;;;;;;;21.49;57.68;101421.63;7385857;19;20014;-63
2022/07/30 01:50:24;;;;;;;6.68;2.28;;;;;;;21.46;58.46;101422.88;7386022;19;20022;-62
2022/07/30 01:52:52;;;;;;;3.80;1.23;;;;;;;21.47;58.66;101416.50;7386941;19;20013;-63
2022/07/30 01:55:26;;;;;;;7.30;1.60;;;;;;;21.46;58.13;101414.84;7387062;19;20270;-63
2022/07/30 01:57:57;;;;;;;3.85;1.20;;;;;;;21.45;58.02;101415.03;7386362;19;20026;-62
2022/07/30 02:00:27;;;;;;;4.30;1.48;;;;;;;21.43;58.14;101407.22;7384857;19;20018;-62
2022/07/30 02:02:54;;;;;;;5.47;1.60;;;;;;;21.42;58.47;101410.94;7386997;19;20025;-62
2022/07/30 02:05:21;;;;;;;3.78;1.70;;;;;;;21.39;58.71;101411.34;7383976;19;20396;-62
2022/07/30 02:07:50;;;;;;;7.10;2.05;;;;;;;21.35;58.24;101412.78;7387132;19;20011;-62
2022/07/30 02:10:40;;;;;;;5.43;1.88;;;;;;;21.37;59.71;101418.78;7387778;19;20017;-62
2022/07/30 02:13:09;;;;;;;8.57;2.08;;;;;;;21.38;58.55;101411.56;7386686;19;20062;-62
2022/07/30 02:15:53;;;;;;;8.15;2.10;;;;;;;21.38;58.76;101411.56;7388135;19;20492;-62
2022/07/30 02:18:30;;;;;;;8.18;2.20;;;;;;;21.34;58.75;101406.63;7387842;19;20014;-63
2022/07/30 02:21:03;;;;;;;5.07;2.25;;;;;;;21.31;58.70;101408.91;7385746;19;20018;-63
2022/07/30 02:23:43;;;;;;;7.47;2.47;;;;;;;21.28;58.89;101403.97;7385733;19;20010;-62
2022/07/30 02:26:17;;;;;;;4.28;1.60;;;;;;;21.25;58.92;101407.88;7385804;19;20018;-62
2022/07/30 02:28:48;;;;;;;6.95;2.22;;;;;;;21.23;59.06;101406.44;7387531;19;20376;-62
2022/07/30 02:31:19;;;;;;;5.80;2.05;;;;;;;21.22;59.43;101396.78;7386043;19;20024;-62
2022/07/30 02:33:56;;;;;;;3.13;1.50;;;;;;;21.20;59.40;101394.28;7384158;19;20014;-65
2022/07/30 02:36:25;;;;;;;6.40;1.98;;;;;;;21.19;59.01;101397.16;7385818;19;20015;-65
2022/07/30 02:38:55;;;;;;;5.97;2.03;;;;;;;21.16;58.78;101398.41;7386948;19;20018;-64
2022/07/30 02:41:25;;;;;;;5.60;1.88;;;;;;;21.12;59.38;101388.31;7384752;19;20370;-66
2022/07/30 02:43:54;;;;;;;4.93;2.25;;;;;;;21.10;59.63;101395.72;7385521;19;20014;-66
2022/07/30 02:46:23;;;;;;;7.20;3.08;;;;;;;21.09;60.12;101394.06;7385145;19;20025;-67
2022/07/30 02:48:53;;;;;;;7.80;2.50;;;;;;;21.07;60.09;101393.47;7383585;19;20037;-66
2022/07/30 02:51:21;;;;;;;6.32;2.42;;;;;;;21.07;60.01;101398.81;7384365;19;20051;-66
2022/07/30 02:53:54;;;;;;;4.43;2.15;;;;;;;21.03;60.11;101393.03;7385022;19;20022;-65
2022/07/30 02:56:21;;;;;;;6.20;2.53;;;;;;;21.01;59.83;101392.44;7385693;19;20025;-66
2022/07/30 02:58:52;;;;;;;3.97;2.40;;;;;;;21.00;59.97;101389.97;7385422;19;20017;-66
2022/07/30 03:01:22;;;;;;;6.00;2.05;;;;;;;20.97;60.13;101388.53;7386011;19;20478;-66
2022/07/30 03:03:54;;;;;;;8.82;4.35;;;;;;;20.98;61.36;101387.47;7382646;19;20504;-65
2022/07/30 03:06:23;;;;;;;5.25;2.67;;;;;;;21.00;61.09;101380.06;7385466;19;20410;-66
2022/07/30 03:08:52;;;;;;;5.00;2.88;;;;;;;21.00;60.69;101377.41;7385618;19;20559;-65
2022/07/30 03:11:20;;;;;;;8.88;2.88;;;;;;;20.99;60.37;101381.09;7385560;19;20011;-66
2022/07/30 03:13:52;;;;;;;7.90;3.03;;;;;;;20.97;60.80;101377.81;7384481;19;20602;-66
2022/07/30 03:16:21;;;;;;;5.53;2.60;;;;;;;20.96;60.67;101384.22;7385427;19;20097;-65
2022/07/30 03:18:49;;;;;;;8.18;3.53;;;;;;;20.91;61.09;101386.69;7381927;19;20157;-65
2022/07/30 03:21:19;;;;;;;7.03;3.58;;;;;;;20.88;61.85;101395.94;7385197;19;20114;-65
2022/07/30 03:23:53;;;;;;;7.35;2.80;;;;;;;20.90;62.67;101399.22;7383822;19;20024;-66
2022/07/30 03:26:21;;;;;;;7.00;3.13;;;;;;;20.92;62.03;101382.97;7383858;19;20017;-63
2022/07/30 03:28:49;;;;;;;7.15;3.00;;;;;;;20.90;62.00;101371.66;7382636;19;20376;-62
2022/07/30 03:31:17;;;;;;;5.00;3.15;;;;;;;20.86;61.66;101370.41;7384973;19;20386;-66
2022/07/30 03:33:45;;;;;;;5.18;2.97;;;;;;;20.81;61.73;101370.22;7377217;19;20022;-66
2022/07/30 03:36:14;;;;;;;7.43;3.25;;;;;;;20.79;62.24;101380.28;7384898;19;20018;-65
2022/07/30 03:38:42;;;;;;;5.50;2.80;;;;;;;20.77;61.95;101375.16;7385388;19;20091;-65
2022/07/30 03:41:12;;;;;;;7.68;2.85;;;;;;;20.77;62.99;101371.66;7380654;19;20372;-65
2022/07/30 03:43:40;;;;;;;6.18;3.60;;;;;;;20.75;62.48;101374.53;7384985;19;20021;-66
2022/07/30 03:46:09;;;;;;;6.50;2.60;;;;;;;20.75;62.39;101381.75;7386418;19;20131;-65
2022/07/30 03:48:38;;;;;;;6.57;3.35;;;;;;;20.73;62.75;101381.09;7381550;19;20055;-64
2022/07/30 03:51:09;;;;;;;8.30;4.10;;;;;;;20.71;63.18;101375.16;7384220;19;20037;-62
2022/07/30 03:53:36;;;;;;;9.27;3.80;;;;;;;20.68;63.96;101360.31;7383610;19;20026;-62
2022/07/30 03:56:03;;;;;;;9.82;4.28;;;;;;;20.65;64.08;101355.41;7383471;19;20374;-64
2022/07/30 03:58:31;;;;;;;10.32;4.80;;;;;;;20.63;64.31;101370.00;7383201;19;20019;-64
2022/07/30 04:01:01;;;;;;;9.13;4.40;;;;;;;20.62;65.17;101369.16;7383953;19;20095;-61
2022/07/30 04:03:31;;;;;;;7.45;4.10;;;;;;;20.61;64.75;101378.25;7380836;19;20025;-61
2022/07/30 04:05:58;;;;;;;10.02;5.10;;;;;;;20.60;64.81;101379.25;7382623;19;20381;-61
2022/07/30 04:08:27;;;;;;;8.50;4.70;;;;;;;20.58;64.71;101378.63;7383033;19;20102;-62
2022/07/30 04:10:54;;;;;;;12.88;5.28;;;;;;;20.55;65.07;101375.56;7384905;19;20361;-62
2022/07/30 04:13:21;;;;;;;9.10;4.75;;;;;;;20.53;65.25;101378.44;7391770;19;20010;-63
2022/07/30 04:16:08;;;;;;;9.77;4.68;;;;;;;20.49;65.40;101374.53;7390563;19;20478;-61
2022/07/30 04:18:58;;;;;;;11.55;5.93;;;;;;;20.49;66.02;101366.50;7389089;19;20011;-61
2022/07/30 04:21:27;;;;;;;14.65;5.97;;;;;;;20.48;65.78;101364.84;7391692;19;20546;-62
2022/07/30 04:23:56;;;;;;;9.95;5.78;;;;;;;20.48;66.46;101373.69;7390468;19;20043;-63
2022/07/30 04:26:32;;;;;;;11.02;5.70;;;;;;;20.45;66.51;101373.28;7390697;19;20035;-61
2022/07/30 04:29:00;;;;;;;12.38;5.72;;;;;;;20.42;66.80;101379.03;7388868;19;20074;-63
2022/07/30 04:31:28;;;;;;;11.32;5.78;;;;;;;20.40;66.90;101370.41;7387129;19;20070;-66
2022/07/30 04:33:55;;;;;;;9.90;5.88;;;;;;;20.38;67.29;101367.09;7386070;19;20022;-64
2022/07/30 04:36:31;;;;;;;12.57;5.88;;;;;;;20.39;67.31;101374.09;7390468;19;20369;-66
2022/07/30 04:38:59;;;;;;;10.45;5.68;;;;;;;20.40;67.52;101381.09;7389723;19;20335;-65
2022/07/30 04:41:26;;;;;;;9.88;5.22;;;;;;;20.39;67.44;101382.13;7390385;19;20412;-65
2022/07/30 04:44:02;;;;;;;10.55;5.45;;;;;;;20.40;67.64;101379.25;7389538;19;20487;-66
2022/07/30 04:46:29;;;;;;;11.10;6.60;;;;;;;20.41;67.34;101380.06;7388188;19;20018;-65
2022/07/30 04:48:56;;;;;;;10.38;6.50;;;;;;;20.37;67.76;101379.63;7385723;19;20104;-65
2022/07/30 04:51:31;;;;;;;9.43;5.78;;;;;;;20.34;68.34;101384.56;7390015;19;20029;-67
2022/07/30 04:54:00;;;;;;;16.00;7.10;;;;;;;20.32;68.90;101376.75;7388257;19;20011;-65
2022/07/30 04:56:29;;;;;;;12.60;6.75;;;;;;;20.33;69.16;101373.06;7389486;19;20010;-66
2022/07/30 04:58:57;;;;;;;16.25;6.65;;;;;;;20.34;68.73;101357.84;7390262;19;20130;-62
2022/07/30 05:01:30;;;;;;;13.70;6.78;;;;;;;20.33;68.60;101362.38;7389483;19;20105;-62
2022/07/30 05:04:08;;;;;;;14.45;6.70;;;;;;;20.33;68.83;101361.53;7387040;19;20436;-62
2022/07/30 05:06:36;;;;;;;9.13;5.47;;;;;;;20.32;69.05;101366.06;7388649;19;20407;-62
2022/07/30 05:09:03;;;;;;;16.33;6.90;;;;;;;20.29;69.30;101368.28;7390133;19;20032;-63
2022/07/30 05:11:30;;;;;;;12.00;6.63;;;;;;;20.27;69.33;101373.81;7388736;19;20078;-62
2022/07/30 05:13:57;;;;;;;14.02;7.38;;;;;;;20.27;69.58;101375.69;7389966;19;20006;-62
2022/07/30 05:16:24;;;;;;;13.93;6.55;;;;;;;20.26;69.71;101384.75;7388713;19;20324;-65
2022/07/30 05:18:51;;;;;;;12.60;6.47;;;;;;;20.26;69.56;101390.09;7385822;19;20011;-65
2022/07/30 05:21:18;;;;;;;10.30;5.53;;;;;;;20.28;69.37;101390.69;7385688;19;20014;-66
2022/07/30 05:23:45;;;;;;;14.60;6.50;;;;;;;20.27;69.69;101389.03;7386848;19;20562;-65
2022/07/30 05:26:20;;;;;;;11.00;6.32;;;;;;;20.26;69.97;101398.94;7388395;19;20010;-65
2022/07/30 05:28:53;;;;;;;12.95;5.70;;;;;;;20.29;69.95;101395.03;7389045;19;20034;-67
2022/07/30 05:31:23;;;;;;;16.98;9.35;;;;;;;20.27;70.48;101389.03;7389159;19;20335;-66
2022/07/30 05:33:51;;;;;;;13.73;6.22;;;;;;;20.29;70.75;101392.34;7385244;19;20017;-65
2022/07/30 05:36:19;;;;;;;11.30;6.80;;;;;;;20.32;69.92;101395.47;7386774;19;20015;-66
2022/07/30 05:38:46;;;;;;;11.43;6.47;;;;;;;20.29;69.56;101401.19;7387676;19;20015;-66
2022/07/30 05:41:13;;;;;;;12.63;6.55;;;;;;;20.26;70.36;101393.59;7382925;19;20501;-65
2022/07/30 05:43:57;;;;;;;12.18;6.05;;;;;;;20.26;70.09;101401.63;7388240;19;20557;-66
2022/07/30 05:46:24;;;;;;;13.68;6.30;;;;;;;20.25;69.83;101397.28;7388072;19;20374;-65
2022/07/30 05:48:51;;;;;;;13.73;6.68;;;;;;;20.28;70.00;101406.72;7386019;19;20018;-62
2022/07/30 05:51:19;;;;;;;10.02;6.35;;;;;;;20.30;70.20;101405.53;7387064;19;20022;-65
2022/07/30 05:53:46;;;;;;;12.52;6.72;;;;;;;20.35;70.19;101392.41;7389372;19;20426;-65
2022/07/30 05:56:13;;;;;;;10.93;5.88;;;;;;;20.36;69.87;101387.88;7387266;19;20024;-65
2022/07/30 05:58:40;;;;;;;9.63;5.90;;;;;;;20.37;70.07;101387.66;7389392;19;20139;-66
2022/07/30 06:01:07;;;;;;;12.32;5.90;;;;;;;20.36;69.88;101370.00;7385333;19;20145;-66
2022/07/30 06:03:34;;;;;;;11.48;5.40;;;;;;;20.35;70.27;101367.50;7386343;19;20058;-63
2022/07/30 06:06:04;;;;;;;9.95;6.00;;;;;;;20.34;70.17;101385.41;7386297;19;20359;-62
2022/07/30 06:08:32;;;;;;;10.50;5.32;;;;;;;20.36;69.89;101382.53;7386098;19;20261;-63
2022/07/30 06:10:59;;;;;;;7.57;4.93;;;;;;;20.39;70.11;101376.78;7387688;19;20512;-63
2022/07/30 06:13:26;;;;;;;8.65;4.95;;;;;;;20.41;69.94;101375.56;7386686;19;20086;-66
2022/07/30 06:15:53;;;;;;;10.43;5.30;;;;;;;20.42;69.84;101379.84;7388566;19;20014;-66
2022/07/30 06:18:20;;;;;;;11.00;4.65;;;;;;;20.42;69.78;101387.03;7383831;19;20014;-66
2022/07/30 06:20:50;;;;;;;12.48;5.35;;;;;;;20.45;69.59;101392.84;7383276;19;20546;-66
2022/07/30 06:23:18;;;;;;;8.20;4.53;;;;;;;20.44;69.46;101393.03;7386365;19;20038;-66
2022/07/30 06:25:47;;;;;;;9.18;4.55;;;;;;;20.42;69.85;101385.19;7386029;19;20031;-68
2022/07/30 06:28:15;;;;;;;8.07;5.15;;;;;;;20.44;69.94;101387.69;7387770;19;20106;-66
2022/07/30 06:31:02;;;;;;;9.45;4.68;;;;;;;20.47;70.15;101379.22;7384504;19;20026;-65
2022/07/30 06:33:29;;;;;;;11.07;4.13;;;;;;;20.48;69.99;101380.88;7383058;19;20022;-66
2022/07/30 06:35:56;;;;;;;9.80;4.55;;;;;;;20.48;69.52;101389.75;7382231;19;20025;-66
2022/07/30 06:38:23;;;;;;;8.40;4.00;;;;;;;20.49;69.88;101388.72;7384614;19;20645;-62
2022/07/30 06:40:50;;;;;;;10.25;4.47;;;;;;;20.51;70.11;101385.03;7382918;19;20094;-62
2022/07/30 06:43:18;;;;;;;7.15;3.78;;;;;;;20.52;70.14;101387.47;7386476;19;20006;-66
2022/07/30 06:45:45;;;;;;;9.05;4.45;;;;;;;20.56;70.37;101391.41;7383001;19;20015;-66
2022/07/30 06:48:12;;;;;;;10.23;4.78;;;;;;;20.57;69.64;101390.34;7386024;19;20113;-66
2022/07/30 06:50:40;;;;;;;9.02;4.07;;;;;;;20.49;69.65;101390.56;7382559;19;20368;-62
2022/07/30 06:53:07;;;;;;;6.03;3.38;;;;;;;20.47;70.11;101392.59;7385660;19;20142;-65
2022/07/30 06:55:34;;;;;;;7.38;4.45;;;;;;;20.46;69.48;101389.13;7382574;19;20434;-65
2022/07/30 06:58:01;;;;;;;11.50;4.45;;;;;;;20.48;70.09;101388.91;7386859;19;20021;-65
2022/07/30 07:00:28;;;;;;;7.65;3.10;;;;;;;20.57;71.80;101390.34;7385168;19;20022;-65
2022/07/30 07:02:55;;;;;;;9.55;4.07;;;;;;;20.58;71.69;101389.34;7385933;19;20356;-64
2022/07/30 07:05:22;;;;;;;9.93;4.30;;;;;;;20.63;71.70;101381.53;7382258;19;20424;-62
2022/07/30 07:07:49;;;;;;;8.60;3.55;;;;;;;20.63;69.45;101383.38;7385028;19;20018;-63
2022/07/30 07:10:24;;;;;;;8.20;4.65;;;;;;;20.63;70.40;101381.53;7384076;19;20014;-62
2022/07/30 07:12:51;;;;;;;9.27;3.83;;;;;;;20.70;69.83;101384.22;7383685;19;20015;-62
2022/07/30 07:15:18;;;;;;;6.43;3.45;;;;;;;20.72;68.96;101385.66;7383448;19;20210;-62
2022/07/30 07:18:02;;;;;;;7.70;3.35;;;;;;;20.76;69.14;101386.88;7384688;19;20034;-64
2022/07/30 07:20:28;;;;;;;6.38;3.03;;;;;;;20.79;69.82;101388.31;7380240;19;20034;-63
2022/07/30 07:22:55;;;;;;;9.35;2.92;;;;;;;20.80;68.96;101396.16;7383415;19;20014;-63
2022/07/30 07:25:23;;;;;;;9.88;3.92;;;;;;;20.85;68.77;101392.84;7383304;19;20090;-66
2022/07/30 07:27:50;;;;;;;14.27;3.67;;;;;;;20.86;67.65;101399.84;7385834;19;20544;-67
2022/07/30 07:30:37;;;;;;;5.35;2.58;;;;;;;20.88;66.81;101395.09;7384718;19;20018;-66
2022/07/30 07:33:04;;;;;;;10.88;3.00;;;;;;;20.91;67.92;101397.38;7383895;19;20010;-66
2022/07/30 07:35:32;;;;;;;5.03;2.42;;;;;;;20.97;67.56;101409.13;7381156;19;20010;-65
2022/07/30 07:38:16;;;;;;;9.27;4.03;;;;;;;21.04;67.49;101401.88;7382975;19;20074;-66
2022/07/30 07:40:43;;;;;;;7.28;2.90;;;;;;;21.07;67.08;101396.13;7381123;19;20138;-66
2022/07/30 07:43:10;;;;;;;4.80;2.42;;;;;;;21.12;66.93;101399.84;7383908;19;20023;-66
2022/07/30 07:45:38;;;;;;;4.60;2.22;;;;;;;21.16;66.67;101395.75;7380899;19;20066;-66
2022/07/30 07:48:05;;;;;;;7.10;2.22;;;;;;;21.27;65.30;101394.28;7383434;19;20078;-64
2022/07/30 07:50:32;;;;;;;6.85;2.20;;;;;;;21.31;64.93;101390.97;7379925;19;20025;-65
2022/07/30 07:52:59;;;;;;;3.50;1.60;;;;;;;21.38;65.29;101395.50;7380731;19;20014;-66
2022/07/30 07:55:26;;;;;;;5.53;1.70;;;;;;;21.40;65.12;101394.25;7381994;19;20031;-66
2022/07/30 07:57:56;;;;;;;4.18;1.38;;;;;;;21.42;64.94;101388.69;7383943;19;20015;-65
2022/07/30 08:00:23;;;;;;;4.70;1.17;;;;;;;21.47;65.49;101389.69;7382627;19;20010;-67
2022/07/30 08:02:50;;;;;;;2.30;1.10;;;;;;;21.52;65.60;101389.06;7383835;19;20359;-64
2022/07/30 08:05:17;;;;;;;5.40;1.08;;;;;;;21.55;63.99;101392.13;7378281;19;20018;-64
2022/07/30 08:07:44;;;;;;;5.45;0.93;;;;;;;21.57;64.31;101391.94;7383367;19;20435;-66
2022/07/30 08:10:13;;;;;;;7.75;1.67;;;;;;;21.56;64.29;101384.94;7382998;19;20038;-66
2022/07/30 08:12:41;;;;;;;4.20;1.60;;;;;;;21.54;65.12;101385.13;7382212;19;20021;-66
2022/07/30 08:15:08;;;;;;;5.47;1.60;;;;;;;21.56;64.87;101391.13;7384110;19;20017;-66
2022/07/30 08:17:45;;;;;;;3.42;1.20;;;;;;;21.63;64.90;101404.50;7383984;19;20030;-66
2022/07/30 08:20:13;;;;;;;4.50;1.10;;;;;;;21.64;64.46;101395.41;7380810;19;20022;-67
2022/07/30 08:22:40;;;;;;;3.65;1.13;;;;;;;21.66;63.01;101391.50;7383208;19;20721;-65
2022/07/30 08:25:08;;;;;;;2.50;0.80;;;;;;;21.66;63.34;101406.75;7382286;19;20021;-65
2022/07/30 08:27:35;;;;;;;5.50;1.20;;;;;;;21.66;62.38;101412.94;7384374;19;20006;-66
2022/07/30 08:30:04;;;;;;;3.58;0.80;;;;;;;21.69;62.94;101403.63;7381926;19;20377;-66
2022/07/30 08:32:31;;;;;;;3.72;0.70;;;;;;;21.76;62.72;101409.78;7383984;19;20015;-66
2022/07/30 08:34:58;;;;;;;5.18;0.90;;;;;;;21.81;62.33;101401.13;7379967;19;20375;-66
2022/07/30 08:37:25;;;;;;;4.53;0.90;;;;;;;21.83;61.88;101401.75;7382767;19;20021;-66
2022/07/30 08:39:52;;;;;;;3.65;0.93;;;;;;;21.85;62.09;101405.84;7378406;19;20029;-66
2022/07/30 08:42:19;;;;;;;2.88;0.70;;;;;;;21.89;61.74;101404.38;7382003;19;20452;-66
2022/07/30 08:44:45;;;;;;;2.78;0.82;;;;;;;21.96;62.91;101409.75;7382238;19;20021;-64
2022/07/30 08:47:17;;;;;;;1.60;0.88;;;;;;;22.03;62.44;101406.00;7383218;19;20039;-62
2022/07/30 08:49:47;;;;;;;3.63;1.10;;;;;;;22.09;62.23;101410.53;7378868;19;20018;-64
2022/07/30 08:52:16;;;;;;;2.65;0.50;;;;;;;22.12;60.54;101404.72;7382722;19;20013;-65
2022/07/30 08:54:43;;;;;;;2.92;0.52;;;;;;;22.17;59.83;101409.44;7382321;19;20761;-64
2022/07/30 08:57:10;;;;;;;2.08;0.60;;;;;;;22.20;60.40;101409.00;7383570;19;20014;-66
2022/07/30 08:59:38;;;;;;;1.27;0.50;;;;;;;22.24;60.41;101410.22;7389709;19;20015;-64
2022/07/30 09:02:25;;;;;;;2.58;0.60;;;;;;;22.29;59.40;101410.41;7386476;19;20038;-65
2022/07/30 09:04:55;;;;;;;1.35;0.60;;;;;;;22.32;58.59;101415.34;7386473;19;20128;-65
2022/07/30 09:07:22;;;;;;;2.13;0.52;;;;;;;22.37;59.23;101418.19;7388652;19;20030;-65
2022/07/30 09:09:49;;;;;;;2.65;0.65;;;;;;;22.39;57.93;101416.13;7389763;19;20526;-65
2022/07/30 09:12:45;;;;;;;1.80;0.32;;;;;;;22.49;58.27;101407.59;7387449;19;20042;-65
2022/07/30 09:15:19;;;;;;;4.47;0.50;;;;;;;22.59;58.97;101416.81;7387736;19;20029;-66
2022/07/30 09:17:50;;;;;;;5.22;0.43;;;;;;;22.70;58.88;101411.78;7389822;19;20030;-65
2022/07/30 09:20:19;;;;;;;1.77;0.40;;;;;;;22.80;57.53;101421.03;7385615;19;20348;-65
2022/07/30 09:22:53;;;;;;;1.20;0.40;;;;;;;22.86;57.19;101412.06;7389618;19;20605;-65
2022/07/30 09:25:36;;;;;;;1.63;0.38;;;;;;;22.92;57.10;101418.44;7385623;19;20126;-65
2022/07/30 09:28:05;;;;;;;2.60;0.40;;;;;;;22.95;57.07;101418.00;7387768;19;20363;-64
2022/07/30 09:30:53;;;;;;;1.70;0.40;;;;;;;22.96;57.76;101417.78;7386921;19;20432;-65
2022/07/30 09:33:38;;;;;;;2.40;0.47;;;;;;;22.98;57.04;101414.88;7388374;19;20019;-66
2022/07/30 09:36:08;;;;;;;1.15;0.50;;;;;;;22.97;57.88;101414.06;7386066;19;20087;-66
2022/07/30 09:38:46;;;;;;;2.55;0.50;;;;;;;22.98;57.41;101415.69;7387809;19;20031;-66
2022/07/30 09:41:20;;;;;;;1.50;0.40;;;;;;;23.00;56.72;101423.53;7385856;19;20110;-65
2022/07/30 09:44:05;;;;;;;5.07;0.40;;;;;;;23.01;56.10;101414.44;7389152;19;20405;-65
2022/07/30 09:46:51;;;;;;;3.60;0.50;;;;;;;23.01;56.59;101406.38;7387958;19;20027;-66
2022/07/30 09:49:26;;;;;;;1.58;0.35;;;;;;;23.03;56.84;101406.97;7386130;19;20359;-65
2022/07/30 09:51:54;;;;;;;3.55;0.50;;;;;;;23.06;58.09;101406.53;7387965;19;20022;-65
2022/07/30 09:54:24;;;;;;;1.95;0.43;;;;;;;23.09;56.71;101391.84;7384409;19;20537;-65
2022/07/30 09:57:08;;;;;;;1.80;0.40;;;;;;;23.12;56.48;101408.34;7388024;19;20019;-62
2022/07/30 09:59:51;;;;;;;3.60;0.40;;;;;;;23.15;56.00;101404.41;7387469;19;20014;-62
2022/07/30 10:02:19;;;;;;;2.47;0.30;;;;;;;23.18;56.10;101409.31;7384989;19;20014;-61
2022/07/30 10:04:47;;;;;;;0.98;0.40;;;;;;;23.21;55.78;101414.28;7382852;19;20022;-62
2022/07/30 10:07:19;;;;;;;4.88;0.60;;;;;;;23.25;56.79;101410.91;7386931;19;20336;-62
2022/07/30 10:09:52;;;;;;;2.13;0.50;;;;;;;23.33;56.21;101407.09;7385706;19;20006;-62
2022/07/30 10:12:24;;;;;;;1.17;0.40;;;;;;;23.38;55.52;101404.56;7387119;19;20011;-62
2022/07/30 10:14:53;;;;;;;3.13;0.40;;;;;;;23.43;55.76;101402.84;7387435;19;20021;-61
2022/07/30 10:17:21;;;;;;;4.72;0.50;;;;;;;23.50;55.44;101399.31;7386896;19;20014;-63
2022/07/30 10:19:48;;;;;;;3.00;0.40;;;;;;;23.52;54.77;101406.09;7384244;19;20377;-62
2022/07/30 10:22:15;;;;;;;2.00;0.57;;;;;;;23.56;55.38;101401.13;7385996;19;20027;-62
2022/07/30 10:24:44;;;;;;;4.28;0.30;;;;;;;23.60;54.94;101397.75;7387172;19;20529;-62
2022/07/30 10:27:12;;;;;;;2.53;0.50;;;;;;;23.66;56.31;101399.53;7386421;19;20066;-64
2022/07/30 10:29:39;;;;;;;1.02;0.40;;;;;;;23.72;55.39;101400.50;7383324;19;20082;-64
2022/07/30 10:32:14;;;;;;;2.40;0.70;;;;;;;23.75;54.78;101397.38;7383551;19;20601;-63
2022/07/30 10:34:57;;;;;;;1.45;0.30;;;;;;;23.77;54.87;101397.97;7383301;19;20467;-63
2022/07/30 10:37:26;;;;;;;3.67;0.60;;;;;;;23.78;54.89;101395.03;7386175;19;20017;-63
2022/07/30 10:40:18;;;;;;;2.35;0.50;;;;;;;23.81;54.69;101386.53;7384644;19;20058;-63
2022/07/30 10:43:12;;;;;;;3.83;0.40;;;;;;;23.86;54.07;101396.59;7383567;19;20530;-63
2022/07/30 10:45:46;;;;;;;6.78;0.40;;;;;;;23.93;55.08;101397.31;7384540;19;20317;-63
2022/07/30 10:48:18;;;;;;;2.22;0.40;;;;;;;23.97;53.79;101403.09;7385787;19;20021;-62
2022/07/30 10:50:56;;;;;;;3.03;0.40;;;;;;;24.02;53.97;101401.38;7382678;19;20041;-63
2022/07/30 10:53:38;;;;;;;2.33;0.40;;;;;;;24.12;54.20;101398.97;7386216;19;20495;-65
2022/07/30 10:56:22;;;;;;;1.52;0.50;;;;;;;24.19;53.46;101415.84;7386277;19;20465;-65
2022/07/30 10:59:09;;;;;;;1.88;0.40;;;;;;;24.21;53.34;101408.38;7385952;19;20498;-67
2022/07/30 11:01:48;;;;;;;3.30;0.43;;;;;;;24.24;54.17;101399.00;7383502;19;20329;-65
2022/07/30 11:04:23;;;;;;;1.92;0.47;;;;;;;24.21;53.47;101403.00;7381629;19;20027;-65
2022/07/30 11:07:28;;;;;;;3.50;0.47;;;;;;;24.23;53.52;101406.25;7384972;19;20086;-66
2022/07/30 11:09:59;;;;;;;1.95;0.40;;;;;;;24.19;52.53;101402.38;7384854;19;20020;-66
2022/07/30 11:12:40;;;;;;;1.73;0.55;;;;;;;24.20;53.11;101401.34;7385146;19;20126;-65
2022/07/30 11:15:14;;;;;;;2.38;0.40;;;;;;;24.20;52.57;101404.03;7384955;19;20586;-66
2022/07/30 11:18:06;;;;;;;1.50;0.43;;;;;;;24.21;53.32;101400.31;7383272;19;20014;-66
2022/07/30 11:20:38;;;;;;;1.35;0.57;;;;;;;24.21;53.17;101397.63;7378154;19;20006;-63
2022/07/30 11:23:17;;;;;;;5.35;0.40;;;;;;;24.24;52.94;101396.31;7383081;19;20530;-63
2022/07/30 11:25:46;;;;;;;0.80;0.40;;;;;;;24.21;52.41;101392.22;7383517;19;20017;-62
2022/07/30 11:28:33;;;;;;;5.13;0.73;;;;;;;24.21;53.13;101396.78;7383206;19;20102;-63
2022/07/30 11:31:00;;;;;;;6.97;0.70;;;;;;;24.20;53.08;101400.53;7385357;19;20090;-63
2022/07/30 11:33:36;;;;;;;5.03;0.45;;;;;;;24.22;52.51;101399.25;7382120;19;20456;-62
2022/07/30 11:36:10;;;;;;;12.93;0.70;;;;;;;24.23;52.38;101392.81;7384254;19;20031;-63
2022/07/30 11:38:54;;;;;;;6.32;0.75;;;;;;;24.26;53.03;101386.97;7381132;19;20032;-63
2022/07/30 11:41:26;;;;;;;4.93;0.70;;;;;;;24.28;53.65;101384.88;7382824;19;20006;-62
2022/07/30 11:44:28;;;;;;;2.55;0.30;;;;;;;24.31;52.61;101391.69;7384442;19;20010;-62